Loving, New Mexico
Current Conditions -  °F | °C
As of 10:53 PM on Saturday 22 Nov 2014 (Local Time) from KCNM Reporting Station
Clear Clear  
Wind Chill: 58°   Ceiling: Unl
Heat Index: 58°   Visibility: 10mi
Dew Point: 20°   Wind: 14mph
Humidity: 23%   Direction: 250°WSW
Pressure: 29.77"   Gusts: NA
Location:  32.29°N, 104.1°W
Report Text: KCNM 230553Z AUTO 25012KT 10SM CLR 14/M07 A2977 RMK AO2 SLP041 T01441067 10189 20122 58015
Loading
Personal Weather Stations






























Interactive Weather Map New forecast layout! Learn more

10-Day Weather Forecast

Advertisements
Track Severe Weather on mobile